createdAt,value
2022-09-22T00:01:22.794Z,9.00
2022-09-22T00:03:52.943Z,9.00
2022-09-22T00:06:25.816Z,8.90
2022-09-22T00:09:00.807Z,8.90
2022-09-22T00:11:36.239Z,8.90
2022-09-22T00:14:12.836Z,8.90
2022-09-22T00:17:01.586Z,8.80
2022-09-22T00:19:31.797Z,8.80
2022-09-22T00:21:58.919Z,8.80
2022-09-22T00:24:27.123Z,8.70
2022-09-22T00:26:57.672Z,8.70
2022-09-22T00:29:25.976Z,8.70
2022-09-22T00:31:52.899Z,8.70
2022-09-22T00:34:21.945Z,8.60
2022-09-22T00:36:49.702Z,8.60
2022-09-22T00:39:17.829Z,8.60
2022-09-22T00:41:48.033Z,8.60
2022-09-22T00:44:26.992Z,8.60
2022-09-22T00:47:01.349Z,8.50
2022-09-22T00:49:48.332Z,8.50
2022-09-22T00:52:21.576Z,8.50
2022-09-22T00:54:51.049Z,8.50
2022-09-22T00:57:23.570Z,8.50
2022-09-22T00:59:52.764Z,8.40
2022-09-22T01:02:21.187Z,8.40
2022-09-22T01:04:52.051Z,8.40
2022-09-22T01:07:21.968Z,8.40
2022-09-22T01:09:49.309Z,8.30
2022-09-22T01:12:16.399Z,8.30
2022-09-22T01:15:29.584Z,8.30
2022-09-22T01:18:37.439Z,8.20
2022-09-22T01:21:19.670Z,8.20
2022-09-22T01:24:08.183Z,8.20
2022-09-22T01:26:46.421Z,8.20
2022-09-22T01:29:31.562Z,8.10
2022-09-22T01:32:21.263Z,8.10
2022-09-22T01:34:50.989Z,8.10
2022-09-22T01:37:24.986Z,8.10
2022-09-22T01:39:59.982Z,8.00
2022-09-22T01:42:44.335Z,8.00
2022-09-22T01:45:19.729Z,8.00
2022-09-22T01:48:18.682Z,7.90
2022-09-22T01:50:54.275Z,7.90
2022-09-22T01:53:24.741Z,7.90
2022-09-22T01:55:55.407Z,7.90
2022-09-22T01:58:33.949Z,7.90
2022-09-22T02:01:12.280Z,7.90
2022-09-22T02:03:46.558Z,7.80
2022-09-22T02:06:25.694Z,7.80
2022-09-22T02:09:04.754Z,7.80
2022-09-22T02:11:32.123Z,7.80
2022-09-22T02:13:59.860Z,7.70
2022-09-22T02:16:27.724Z,7.70
2022-09-22T02:19:17.901Z,7.80
2022-09-22T02:21:47.194Z,7.70
2022-09-22T02:24:28.625Z,7.70
2022-09-22T02:27:00.920Z,7.70
2022-09-22T02:29:31.928Z,7.70
2022-09-22T02:32:00.308Z,7.70
2022-09-22T02:34:28.323Z,7.60
2022-09-22T02:37:12.095Z,7.60
2022-09-22T02:40:14.381Z,7.60
2022-09-22T02:42:49.897Z,7.50
2022-09-22T02:45:31.170Z,7.40
2022-09-22T02:48:12.219Z,7.40
2022-09-22T02:50:39.333Z,7.40
2022-09-22T02:53:12.869Z,7.40
2022-09-22T02:55:40.970Z,7.40
2022-09-22T02:58:07.986Z,7.40
2022-09-22T03:00:35.000Z,7.40
2022-09-22T03:03:02.082Z,7.40
2022-09-22T03:05:29.024Z,7.40
2022-09-22T03:07:56.266Z,7.40
2022-09-22T03:10:23.237Z,7.30
2022-09-22T03:13:14.837Z,7.40
2022-09-22T03:15:37.127Z,7.30
2022-09-22T03:18:04.693Z,7.30
2022-09-22T03:20:31.638Z,7.30
2022-09-22T03:22:58.602Z,7.20
2022-09-22T03:25:25.558Z,7.20
2022-09-22T03:27:52.521Z,7.20
2022-09-22T03:30:19.580Z,7.10
2022-09-22T03:32:46.483Z,7.10
2022-09-22T03:35:13.899Z,7.10
2022-09-22T03:37:40.836Z,7.00
2022-09-22T03:40:08.212Z,7.10
2022-09-22T03:42:35.922Z,7.00
2022-09-22T03:45:04.462Z,7.00
2022-09-22T03:47:32.101Z,7.00
2022-09-22T03:49:59.085Z,7.00
2022-09-22T03:52:26.353Z,7.00
2022-09-22T03:54:54.268Z,6.90
2022-09-22T03:57:21.155Z,6.90
2022-09-22T03:59:48.136Z,6.90
2022-09-22T04:02:15.616Z,6.90
2022-09-22T04:04:42.777Z,6.90
2022-09-22T04:07:09.715Z,6.90
2022-09-22T04:09:36.672Z,6.90
2022-09-22T04:12:03.826Z,6.80
2022-09-22T04:14:30.824Z,6.80
2022-09-22T04:16:57.808Z,6.80
2022-09-22T04:19:24.853Z,6.80
2022-09-22T04:21:56.811Z,6.70
2022-09-22T04:24:24.705Z,6.70
2022-09-22T04:27:18.000Z,6.70
2022-09-22T04:29:38.930Z,6.70
2022-09-22T04:32:06.138Z,6.70
2022-09-22T04:34:33.071Z,6.70
2022-09-22T04:37:00.079Z,6.70
2022-09-22T04:39:28.841Z,6.70
2022-09-22T04:41:56.280Z,6.70
2022-09-22T04:44:23.361Z,6.70
2022-09-22T04:46:50.568Z,6.70
2022-09-22T04:49:18.647Z,6.70
2022-09-22T04:51:45.654Z,6.80
2022-09-22T04:54:14.976Z,6.70
2022-09-22T04:56:42.941Z,6.70
2022-09-22T04:59:10.543Z,6.70
2022-09-22T05:01:37.705Z,6.70
2022-09-22T05:04:04.857Z,6.70
2022-09-22T05:06:31.833Z,6.80
2022-09-22T05:08:58.728Z,6.80
2022-09-22T05:11:25.794Z,6.70
2022-09-22T05:13:52.707Z,6.70
2022-09-22T05:16:20.259Z,6.70
2022-09-22T05:18:50.278Z,6.60
2022-09-22T05:21:18.976Z,6.60
2022-09-22T05:23:46.815Z,6.60
2022-09-22T05:26:13.742Z,6.50
2022-09-22T05:28:41.065Z,6.40
2022-09-22T05:31:08.372Z,6.40
2022-09-22T05:33:35.359Z,6.40
2022-09-22T05:36:02.699Z,6.40
2022-09-22T05:38:29.853Z,6.40
2022-09-22T05:40:56.801Z,6.50
2022-09-22T05:43:23.770Z,6.50
2022-09-22T05:45:50.852Z,6.50
2022-09-22T05:48:17.816Z,6.50
2022-09-22T05:50:45.574Z,6.60
2022-09-22T05:53:13.292Z,6.60
2022-09-22T05:55:41.201Z,6.70
2022-09-22T05:58:11.828Z,6.70
2022-09-22T06:00:40.195Z,6.80
2022-09-22T06:03:07.403Z,6.80
2022-09-22T06:05:37.887Z,6.70
2022-09-22T06:08:06.932Z,6.80
2022-09-22T06:10:36.932Z,6.80
2022-09-22T06:13:05.916Z,6.80
2022-09-22T06:15:36.437Z,6.80
2022-09-22T06:18:07.452Z,6.70
2022-09-22T06:20:35.351Z,6.70
2022-09-22T06:23:02.665Z,6.70
2022-09-22T06:25:30.190Z,6.80
2022-09-22T06:28:02.400Z,6.90
2022-09-22T06:30:31.412Z,7.00
2022-09-22T06:32:58.969Z,7.10
2022-09-22T06:35:26.566Z,7.20
2022-09-22T06:37:59.658Z,7.30
2022-09-22T06:40:28.134Z,7.40
2022-09-22T06:42:59.539Z,7.60
2022-09-22T06:45:27.335Z,7.70
2022-09-22T06:47:59.155Z,7.80
2022-09-22T06:50:31.169Z,7.90
2022-09-22T06:53:07.321Z,8.00
2022-09-22T06:55:35.829Z,8.00
2022-09-22T06:58:03.230Z,8.10
2022-09-22T07:00:32.905Z,8.20
2022-09-22T07:03:21.019Z,8.30
2022-09-22T07:06:01.310Z,8.30
2022-09-22T07:08:30.055Z,8.30
2022-09-22T07:11:05.271Z,8.40
2022-09-22T07:13:32.869Z,8.40
2022-09-22T07:16:01.706Z,8.50
2022-09-22T07:18:30.312Z,8.50
2022-09-22T07:21:07.109Z,8.60
2022-09-22T07:23:35.856Z,8.70
2022-09-22T07:26:07.763Z,8.70
2022-09-22T07:28:36.114Z,8.80
2022-09-22T07:31:12.380Z,8.80
2022-09-22T07:33:41.128Z,8.80
2022-09-22T07:36:12.475Z,8.80
2022-09-22T07:38:44.075Z,8.80
2022-09-22T07:41:13.612Z,8.80
2022-09-22T07:43:41.750Z,8.80
2022-09-22T07:46:09.677Z,8.80
2022-09-22T07:48:37.818Z,8.80
2022-09-22T07:51:12.885Z,8.80
2022-09-22T07:53:41.286Z,8.80
2022-09-22T07:56:13.515Z,8.90
2022-09-22T07:58:58.796Z,8.90
2022-09-22T08:01:26.567Z,8.90
2022-09-22T08:03:53.604Z,9.00
2022-09-22T08:06:23.577Z,9.10
2022-09-22T08:08:55.436Z,9.20
2022-09-22T08:11:28.111Z,9.30
2022-09-22T08:13:57.539Z,9.40
2022-09-22T08:16:30.382Z,9.50
2022-09-22T08:18:59.229Z,9.50
2022-09-22T08:21:28.018Z,9.60
2022-09-22T08:23:55.011Z,9.70
2022-09-22T08:26:22.946Z,9.70
2022-09-22T08:28:54.522Z,9.80
2022-09-22T08:31:23.055Z,9.90
2022-09-22T08:33:52.240Z,10.00
2022-09-22T08:36:19.764Z,10.10
2022-09-22T08:38:48.767Z,10.10
2022-09-22T08:41:39.720Z,10.20
2022-09-22T08:44:33.085Z,10.30
2022-09-22T08:47:01.999Z,10.40
2022-09-22T08:50:04.836Z,10.50
2022-09-22T08:52:54.944Z,10.70
2022-09-22T08:55:24.944Z,10.90
2022-09-22T08:57:56.497Z,11.10
2022-09-22T09:00:25.498Z,11.40
2022-09-22T09:03:21.177Z,11.70
2022-09-22T09:06:29.778Z,12.10
2022-09-22T09:09:21.287Z,12.60
2022-09-22T09:11:58.257Z,13.20
2022-09-22T09:14:33.821Z,13.80
2022-09-22T09:17:11.594Z,14.50
2022-09-22T09:19:42.676Z,15.70
2022-09-22T09:22:28.271Z,17.00
2022-09-22T09:27:49.368Z,20.20
2022-09-22T09:30:20.775Z,22.30
2022-09-22T09:32:52.991Z,24.10
2022-09-22T09:35:28.032Z,25.70
2022-09-22T09:37:58.856Z,27.00
2022-09-22T09:40:25.961Z,28.30
2022-09-22T09:42:58.712Z,29.70
2022-09-22T09:45:34.383Z,30.60
2022-09-22T09:48:34.172Z,30.90
2022-09-22T09:51:05.492Z,31.50
2022-09-22T09:53:41.119Z,32.20
2022-09-22T09:56:20.495Z,33.00
2022-09-22T09:59:24.266Z,33.40
2022-09-22T10:01:54.500Z,34.30
2022-09-22T10:04:30.820Z,35.00
2022-09-22T10:07:13.050Z,35.70
2022-09-22T10:09:41.075Z,36.50
2022-09-22T10:12:26.315Z,36.90
2022-09-22T10:14:58.728Z,37.60
2022-09-22T10:17:28.831Z,38.60
2022-09-22T10:20:26.521Z,38.80
2022-09-22T10:22:54.782Z,38.70
2022-09-22T10:25:22.018Z,38.30
2022-09-22T10:28:01.158Z,37.60
2022-09-22T10:30:33.117Z,38.40
2022-09-22T10:33:20.624Z,38.60
2022-09-22T10:35:55.775Z,39.00
2022-09-22T10:38:32.374Z,39.70
2022-09-22T10:41:08.012Z,40.90
2022-09-22T10:43:43.689Z,40.90
2022-09-22T10:46:50.061Z,41.10
2022-09-22T10:49:32.068Z,41.00
2022-09-22T10:52:28.112Z,40.40
2022-09-22T10:55:06.749Z,40.40
2022-09-22T10:57:45.664Z,41.00
2022-09-22T11:00:22.082Z,41.60
2022-09-22T11:03:07.442Z,42.70
2022-09-22T11:06:30.769Z,41.80
2022-09-22T11:09:52.224Z,41.20
2022-09-22T11:12:22.335Z,39.60
2022-09-22T11:14:59.208Z,39.60
2022-09-22T11:17:32.137Z,38.80
2022-09-22T11:20:10.934Z,38.50
2022-09-22T11:22:53.018Z,38.00
2022-09-22T11:25:47.663Z,36.90
2022-09-22T11:28:38.302Z,35.40
2022-09-22T11:31:05.418Z,34.40
2022-09-22T11:34:10.773Z,33.30
2022-09-22T11:37:25.706Z,32.50
2022-09-22T11:40:34.381Z,32.50
2022-09-22T11:43:26.096Z,32.70
2022-09-22T11:46:11.147Z,33.10
2022-09-22T11:48:47.277Z,33.40
2022-09-22T11:52:05.560Z,34.70
2022-09-22T11:55:00.829Z,35.50
2022-09-22T11:57:33.941Z,36.40
2022-09-22T12:00:06.001Z,37.00
2022-09-22T12:02:40.202Z,37.80
2022-09-22T12:05:15.910Z,37.10
2022-09-22T12:07:59.469Z,37.10
2022-09-22T12:10:38.574Z,37.40
2022-09-22T12:13:11.466Z,37.00
2022-09-22T12:16:02.443Z,36.40
2022-09-22T12:18:43.837Z,36.10
2022-09-22T12:21:45.591Z,35.30
2022-09-22T12:24:12.984Z,34.30
2022-09-22T12:26:46.398Z,34.00
2022-09-22T12:29:18.741Z,32.80
2022-09-22T12:31:48.597Z,32.40
2022-09-22T12:34:25.379Z,32.00
2022-09-22T12:36:56.067Z,31.50
2022-09-22T12:39:31.898Z,31.40
2022-09-22T12:42:05.157Z,31.20
2022-09-22T12:44:36.544Z,31.20
2022-09-22T12:47:19.191Z,31.00
2022-09-22T12:49:52.247Z,31.10
2022-09-22T12:52:40.269Z,31.40
2022-09-22T12:55:28.861Z,31.50
2022-09-22T12:58:01.340Z,32.00
2022-09-22T13:00:35.572Z,33.30
2022-09-22T13:03:24.963Z,34.00
2022-09-22T13:05:56.466Z,35.40
2022-09-22T13:08:26.403Z,35.20
2022-09-22T13:10:54.673Z,35.30
2022-09-22T13:13:36.767Z,35.60
2022-09-22T13:16:16.021Z,35.70
2022-09-22T13:19:07.071Z,36.20
2022-09-22T13:21:34.490Z,34.50
2022-09-22T13:24:04.309Z,33.50
2022-09-22T13:26:32.846Z,33.30
2022-09-22T13:29:13.247Z,33.10
2022-09-22T13:31:48.679Z,32.90
2022-09-22T13:34:30.214Z,31.10
2022-09-22T13:37:04.627Z,29.40
2022-09-22T13:39:42.239Z,28.20
2022-09-22T13:42:24.987Z,27.20
2022-09-22T13:45:16.823Z,26.70
2022-09-22T13:47:44.584Z,27.00
2022-09-22T13:50:20.822Z,26.70
2022-09-22T13:52:51.373Z,26.70
2022-09-22T13:55:33.371Z,26.50
2022-09-22T13:58:01.370Z,25.70
2022-09-22T14:01:12.553Z,25.30
2022-09-22T14:03:40.263Z,24.80
2022-09-22T14:06:14.728Z,24.20
2022-09-22T14:08:42.884Z,23.70
2022-09-22T14:11:21.579Z,23.20
2022-09-22T14:13:55.134Z,22.80
2022-09-22T14:16:44.428Z,22.60
2022-09-22T14:19:23.275Z,22.50
2022-09-22T14:21:50.277Z,22.60
2022-09-22T14:24:17.986Z,22.50
2022-09-22T14:27:18.367Z,22.40
2022-09-22T14:29:49.131Z,22.40
2022-09-22T14:32:36.880Z,21.70
2022-09-22T14:35:08.857Z,21.40
2022-09-22T14:37:42.056Z,21.70
2022-09-22T14:40:23.102Z,21.90
2022-09-22T14:43:03.302Z,22.00
2022-09-22T14:45:32.894Z,22.50
2022-09-22T14:48:12.189Z,22.80
2022-09-22T14:50:42.422Z,23.00
2022-09-22T14:53:25.337Z,23.00
2022-09-22T14:56:04.225Z,23.10
2022-09-22T14:58:40.703Z,23.30
2022-09-22T15:01:47.575Z,23.40
2022-09-22T15:04:23.304Z,23.50
2022-09-22T15:06:59.207Z,23.50
2022-09-22T15:09:30.840Z,23.50
2022-09-22T15:12:03.481Z,23.50
2022-09-22T15:14:37.563Z,23.40
2022-09-22T15:17:44.328Z,23.40
2022-09-22T15:20:11.549Z,23.40
2022-09-22T15:22:38.967Z,23.30
2022-09-22T15:25:06.144Z,23.20
2022-09-22T15:27:33.135Z,23.20
2022-09-22T15:30:00.219Z,23.10
2022-09-22T15:32:27.164Z,23.00
2022-09-22T15:34:55.133Z,22.90
2022-09-22T15:37:22.771Z,22.80
2022-09-22T15:39:49.722Z,22.70
2022-09-22T15:42:16.812Z,22.70
2022-09-22T15:44:43.952Z,22.60
2022-09-22T15:47:16.695Z,22.50
2022-09-22T15:49:45.217Z,22.40
2022-09-22T15:52:12.362Z,22.40
2022-09-22T15:54:39.278Z,22.40
2022-09-22T15:57:06.595Z,22.40
2022-09-22T15:59:34.008Z,22.50
2022-09-22T16:02:01.382Z,22.50
2022-09-22T16:04:33.776Z,22.40
2022-09-22T16:07:04.869Z,22.20
2022-09-22T16:09:31.918Z,22.10
2022-09-22T16:11:59.156Z,22.10
2022-09-22T16:14:26.107Z,22.10
2022-09-22T16:16:53.044Z,22.10
2022-09-22T16:19:20.454Z,22.00
2022-09-22T16:21:52.868Z,21.80
2022-09-22T16:24:22.754Z,21.60
2022-09-22T16:26:51.427Z,21.50
2022-09-22T16:29:18.647Z,21.50
2022-09-22T16:31:45.731Z,21.30
2022-09-22T16:34:13.073Z,21.30
2022-09-22T16:36:41.798Z,21.30
2022-09-22T16:39:09.021Z,21.30
2022-09-22T16:41:36.915Z,21.20
2022-09-22T16:44:05.077Z,21.20
2022-09-22T16:46:38.457Z,21.00
2022-09-22T16:49:11.759Z,20.90
2022-09-22T16:51:49.801Z,20.90
2022-09-22T16:54:17.942Z,20.80
2022-09-22T16:56:47.169Z,20.70
2022-09-22T16:59:19.826Z,20.60
2022-09-22T17:01:47.597Z,20.60
2022-09-22T17:04:16.557Z,20.40
2022-09-22T17:06:44.099Z,20.30
2022-09-22T17:09:12.110Z,20.20
2022-09-22T17:11:42.057Z,20.10
2022-09-22T17:14:13.739Z,19.90
2022-09-22T17:16:45.311Z,19.80
2022-09-22T17:19:17.301Z,19.70
2022-09-22T17:21:48.398Z,19.60
2022-09-22T17:24:16.047Z,19.50
2022-09-22T17:26:49.252Z,19.40
2022-09-22T17:29:25.326Z,19.20
2022-09-22T17:31:57.873Z,19.20
2022-09-22T17:34:26.448Z,19.00
2022-09-22T17:36:55.578Z,18.90
2022-09-22T17:39:27.262Z,18.80
2022-09-22T17:41:55.268Z,18.60
2022-09-22T17:44:23.133Z,18.50
2022-09-22T17:47:10.117Z,18.30
2022-09-22T17:49:57.197Z,18.10
2022-09-22T17:52:33.793Z,17.90
2022-09-22T17:55:14.210Z,17.80
2022-09-22T17:57:43.570Z,17.70
2022-09-22T18:00:16.601Z,17.60
2022-09-22T18:02:44.050Z,17.50
2022-09-22T18:05:13.556Z,17.30
2022-09-22T18:07:41.235Z,17.20
2022-09-22T18:10:10.596Z,17.00
2022-09-22T18:12:37.875Z,16.90
2022-09-22T18:15:05.747Z,16.80
2022-09-22T18:17:41.700Z,16.70
2022-09-22T18:20:27.838Z,16.60
2022-09-22T18:22:57.804Z,16.50
2022-09-22T18:25:25.833Z,16.40
2022-09-22T18:27:55.155Z,16.20
2022-09-22T18:30:22.114Z,16.10
2022-09-22T18:32:49.498Z,16.10
2022-09-22T18:35:16.848Z,15.90
2022-09-22T18:37:44.006Z,15.80
2022-09-22T18:40:12.531Z,15.70
2022-09-22T18:42:40.692Z,15.70
2022-09-22T18:45:08.053Z,15.70
2022-09-22T18:47:39.730Z,15.60
2022-09-22T18:50:07.314Z,15.50
2022-09-22T18:52:34.648Z,15.50
2022-09-22T18:55:04.831Z,15.40
2022-09-22T18:57:31.780Z,15.30
2022-09-22T19:00:01.290Z,15.30
2022-09-22T19:02:28.679Z,15.20
2022-09-22T19:04:55.637Z,15.10
2022-09-22T19:07:41.635Z,15.00
2022-09-22T19:10:14.553Z,14.90
2022-09-22T19:12:42.799Z,14.80
2022-09-22T19:15:18.825Z,14.70
2022-09-22T19:17:48.587Z,14.50
2022-09-22T19:20:24.034Z,14.50
2022-09-22T19:22:52.845Z,14.40
2022-09-22T19:25:21.623Z,14.30
2022-09-22T19:27:49.926Z,14.20
2022-09-22T19:30:21.871Z,14.20
2022-09-22T19:32:50.532Z,14.20
2022-09-22T19:35:17.640Z,14.10
2022-09-22T19:37:44.593Z,14.00
2022-09-22T19:40:19.032Z,14.00
2022-09-22T19:42:47.128Z,13.90
2022-09-22T19:45:14.709Z,13.90
2022-09-22T19:47:41.743Z,13.90
2022-09-22T19:50:09.388Z,13.80
2022-09-22T19:52:37.891Z,13.70
2022-09-22T19:55:06.724Z,13.70
2022-09-22T19:57:34.831Z,13.60
2022-09-22T20:00:01.966Z,13.60
2022-09-22T20:02:28.930Z,13.50
2022-09-22T20:04:56.027Z,13.50
2022-09-22T20:07:24.407Z,13.40
2022-09-22T20:09:51.391Z,13.40
2022-09-22T20:12:18.295Z,13.40
2022-09-22T20:14:45.931Z,13.30
2022-09-22T20:17:12.969Z,13.20
2022-09-22T20:19:40.149Z,13.20
2022-09-22T20:22:28.195Z,13.10
2022-09-22T20:24:58.618Z,13.10
2022-09-22T20:27:29.184Z,13.00
2022-09-22T20:29:57.599Z,12.90
2022-09-22T20:32:26.312Z,12.80
2022-09-22T20:34:55.543Z,12.80
2022-09-22T20:37:24.543Z,12.70
2022-09-22T20:39:52.178Z,12.70
2022-09-22T20:42:19.107Z,12.60
2022-09-22T20:44:47.033Z,12.50
2022-09-22T20:47:17.111Z,12.50
2022-09-22T20:49:46.945Z,12.40
2022-09-22T20:52:17.507Z,12.40
2022-09-22T20:54:45.069Z,12.30
2022-09-22T20:57:12.467Z,12.20
2022-09-22T20:59:39.940Z,12.10
2022-09-22T21:02:07.499Z,12.10
2022-09-22T21:04:34.688Z,12.10
2022-09-22T21:07:01.633Z,12.00
2022-09-22T21:09:46.952Z,12.00
2022-09-22T21:12:13.937Z,12.00
2022-09-22T21:14:46.031Z,12.00
2022-09-22T21:17:13.965Z,12.00
2022-09-22T21:19:41.095Z,12.00
2022-09-22T21:22:08.098Z,11.90
2022-09-22T21:24:35.041Z,11.90
2022-09-22T21:27:01.973Z,11.90
2022-09-22T21:29:30.245Z,11.80
2022-09-22T21:31:58.060Z,11.80
2022-09-22T21:34:25.421Z,11.70
2022-09-22T21:36:52.597Z,11.60
2022-09-22T21:39:19.644Z,11.60
2022-09-22T21:41:46.551Z,11.50
2022-09-22T21:44:13.700Z,11.40
2022-09-22T21:46:44.415Z,11.40
2022-09-22T21:49:11.738Z,11.40
2022-09-22T21:51:44.461Z,11.30
2022-09-22T21:54:16.865Z,11.30
2022-09-22T21:56:44.197Z,11.20
2022-09-22T21:59:12.557Z,11.10
2022-09-22T22:01:42.122Z,11.10
2022-09-22T22:04:10.465Z,11.00
2022-09-22T22:06:40.266Z,11.00
2022-09-22T22:09:15.303Z,11.00
2022-09-22T22:11:55.637Z,10.90
2022-09-22T22:14:24.689Z,10.80
2022-09-22T22:16:53.999Z,10.90
2022-09-22T22:19:22.747Z,10.80
2022-09-22T22:21:51.047Z,10.80
2022-09-22T22:24:26.708Z,10.80
2022-09-22T22:26:59.031Z,10.70
2022-09-22T22:29:27.718Z,10.70
2022-09-22T22:31:54.692Z,10.70
2022-09-22T22:34:25.860Z,10.60
2022-09-22T22:36:53.778Z,10.60
2022-09-22T22:39:20.832Z,10.50
2022-09-22T22:41:51.527Z,10.50
2022-09-22T22:44:18.463Z,10.50
2022-09-22T22:46:46.353Z,10.50
2022-09-22T22:49:13.602Z,10.40
2022-09-22T22:51:43.398Z,10.30
2022-09-22T22:54:11.882Z,10.30
2022-09-22T22:56:42.043Z,10.20
2022-09-22T22:59:10.678Z,10.20
2022-09-22T23:01:38.014Z,10.20
2022-09-22T23:04:07.837Z,10.20
2022-09-22T23:06:41.872Z,10.10
2022-09-22T23:09:13.024Z,10.10
2022-09-22T23:11:40.956Z,10.00
2022-09-22T23:14:11.475Z,10.00
2022-09-22T23:16:44.127Z,10.00
2022-09-22T23:19:13.845Z,9.90
2022-09-22T23:21:40.811Z,9.80
2022-09-22T23:24:09.103Z,9.80
2022-09-22T23:26:37.537Z,9.70
2022-09-22T23:29:05.303Z,9.70
2022-09-22T23:31:32.675Z,9.70
2022-09-22T23:33:59.584Z,9.70
2022-09-22T23:36:28.740Z,9.70
2022-09-22T23:39:09.510Z,9.60
2022-09-22T23:41:37.233Z,9.60
2022-09-22T23:44:06.913Z,9.60
2022-09-22T23:46:34.614Z,9.60
2022-09-22T23:49:02.435Z,9.60
2022-09-22T23:51:29.621Z,9.60
2022-09-22T23:53:57.340Z,9.50
2022-09-22T23:56:25.064Z,9.50
2022-09-22T23:58:52.721Z,9.50
